sensor_id;sensor_type;location;lat;lon;timestamp;P1;durP1;ratioP1;P2;durP2;ratioP2
23360;SDS011;11852;50.082;18.554;2022-12-07T00:00:35;21.6;;;14.5;;
23360;SDS011;11852;50.082;18.554;2022-12-07T00:01:45;20.0;;;13.6;;
23360;SDS011;11852;50.082;18.554;2022-12-07T00:02:49;21.0;;;14.3;;
23360;SDS011;11852;50.082;18.554;2022-12-07T00:04:03;20.0;;;13.8;;
23360;SDS011;11852;50.082;18.554;2022-12-07T00:05:09;20.1;;;13.2;;
23360;SDS011;11852;50.082;18.554;2022-12-07T00:06:16;19.4;;;13.8;;
23360;SDS011;11852;50.082;18.554;2022-12-07T00:07:26;18.4;;;13.0;;
23360;SDS011;11852;50.082;18.554;2022-12-07T00:08:33;19.6;;;13.5;;
23360;SDS011;11852;50.082;18.554;2022-12-07T00:09:40;18.4;;;12.4;;
23360;SDS011;11852;50.082;18.554;2022-12-07T00:10:47;19.8;;;13.8;;
23360;SDS011;11852;50.082;18.554;2022-12-07T00:11:54;18.4;;;13.1;;
23360;SDS011;11852;50.082;18.554;2022-12-07T00:13:02;18.6;;;14.0;;
23360;SDS011;11852;50.082;18.554;2022-12-07T00:14:12;17.4;;;12.7;;
23360;SDS011;11852;50.082;18.554;2022-12-07T00:15:19;19.0;;;13.7;;
23360;SDS011;11852;50.082;18.554;2022-12-07T00:16:28;18.4;;;13.3;;
23360;SDS011;11852;50.082;18.554;2022-12-07T00:17:35;18.5;;;13.4;;
23360;SDS011;11852;50.082;18.554;2022-12-07T00:18:42;18.1;;;12.4;;
23360;SDS011;11852;50.082;18.554;2022-12-07T00:19:49;19.0;;;13.6;;
23360;SDS011;11852;50.082;18.554;2022-12-07T00:22:15;16.8;;;12.5;;
23360;SDS011;11852;50.082;18.554;2022-12-07T00:23:22;20.3;;;14.4;;
23360;SDS011;11852;50.082;18.554;2022-12-07T00:24:30;19.0;;;13.3;;
23360;SDS011;11852;50.082;18.554;2022-12-07T00:25:37;20.5;;;14.2;;
23360;SDS011;11852;50.082;18.554;2022-12-07T00:26:44;21.3;;;14.8;;
23360;SDS011;11852;50.082;18.554;2022-12-07T00:27:53;20.8;;;14.8;;
23360;SDS011;11852;50.082;18.554;2022-12-07T00:29:03;21.2;;;15.1;;
23360;SDS011;11852;50.082;18.554;2022-12-07T00:30:08;20.7;;;14.8;;
23360;SDS011;11852;50.082;18.554;2022-12-07T00:31:15;21.0;;;14.7;;
23360;SDS011;11852;50.082;18.554;2022-12-07T00:32:22;20.1;;;14.2;;
23360;SDS011;11852;50.082;18.554;2022-12-07T00:33:29;19.4;;;13.6;;
23360;SDS011;11852;50.082;18.554;2022-12-07T00:34:37;20.4;;;14.0;;
23360;SDS011;11852;50.082;18.554;2022-12-07T00:35:44;19.2;;;13.9;;
23360;SDS011;11852;50.082;18.554;2022-12-07T00:36:51;20.3;;;13.7;;
23360;SDS011;11852;50.082;18.554;2022-12-07T00:37:58;20.8;;;13.9;;
23360;SDS011;11852;50.082;18.554;2022-12-07T00:39:06;20.3;;;14.5;;
23360;SDS011;11852;50.082;18.554;2022-12-07T00:40:13;23.2;;;16.6;;
23360;SDS011;11852;50.082;18.554;2022-12-07T00:41:21;23.6;;;16.1;;
23360;SDS011;11852;50.082;18.554;2022-12-07T00:42:27;22.3;;;14.6;;
23360;SDS011;11852;50.082;18.554;2022-12-07T00:43:34;21.1;;;15.0;;
23360;SDS011;11852;50.082;18.554;2022-12-07T00:44:41;21.5;;;14.9;;
23360;SDS011;11852;50.082;18.554;2022-12-07T00:45:48;23.8;;;15.9;;
23360;SDS011;11852;50.082;18.554;2022-12-07T00:46:56;22.5;;;15.6;;
23360;SDS011;11852;50.082;18.554;2022-12-07T00:48:03;23.4;;;15.6;;
23360;SDS011;11852;50.082;18.554;2022-12-07T00:49:10;23.0;;;16.2;;
23360;SDS011;11852;50.082;18.554;2022-12-07T00:50:17;23.7;;;16.7;;
23360;SDS011;11852;50.082;18.554;2022-12-07T00:51:25;23.5;;;17.3;;
23360;SDS011;11852;50.082;18.554;2022-12-07T00:52:32;21.6;;;15.1;;
23360;SDS011;11852;50.082;18.554;2022-12-07T00:53:40;22.1;;;15.2;;
23360;SDS011;11852;50.082;18.554;2022-12-07T00:54:47;21.7;;;15.3;;
23360;SDS011;11852;50.082;18.554;2022-12-07T00:55:54;22.7;;;15.0;;
23360;SDS011;11852;50.082;18.554;2022-12-07T00:57:01;21.2;;;14.7;;
23360;SDS011;11852;50.082;18.554;2022-12-07T00:58:08;21.5;;;14.7;;
23360;SDS011;11852;50.082;18.554;2022-12-07T00:59:15;21.6;;;15.2;;
23360;SDS011;11852;50.082;18.554;2022-12-07T01:00:26;22.5;;;14.8;;
23360;SDS011;11852;50.082;18.554;2022-12-07T01:01:34;20.6;;;15.5;;
23360;SDS011;11852;50.082;18.554;2022-12-07T01:02:40;21.2;;;15.1;;
23360;SDS011;11852;50.082;18.554;2022-12-07T01:03:47;22.7;;;15.6;;
23360;SDS011;11852;50.082;18.554;2022-12-07T01:04:54;22.7;;;14.9;;
23360;SDS011;11852;50.082;18.554;2022-12-07T01:06:02;20.1;;;14.6;;
23360;SDS011;11852;50.082;18.554;2022-12-07T01:07:08;21.1;;;15.0;;
23360;SDS011;11852;50.082;18.554;2022-12-07T01:08:16;21.0;;;15.4;;
23360;SDS011;11852;50.082;18.554;2022-12-07T01:09:23;18.9;;;13.9;;
23360;SDS011;11852;50.082;18.554;2022-12-07T01:10:31;19.6;;;13.1;;
23360;SDS011;11852;50.082;18.554;2022-12-07T01:11:38;18.6;;;13.7;;
23360;SDS011;11852;50.082;18.554;2022-12-07T01:12:45;18.5;;;13.7;;
23360;SDS011;11852;50.082;18.554;2022-12-07T01:13:53;20.1;;;14.2;;
23360;SDS011;11852;50.082;18.554;2022-12-07T01:14:59;17.8;;;12.8;;
23360;SDS011;11852;50.082;18.554;2022-12-07T01:16:06;19.8;;;14.0;;
23360;SDS011;11852;50.082;18.554;2022-12-07T01:17:13;21.0;;;15.0;;
23360;SDS011;11852;50.082;18.554;2022-12-07T01:18:20;19.9;;;14.8;;
23360;SDS011;11852;50.082;18.554;2022-12-07T01:19:27;21.2;;;15.5;;
23360;SDS011;11852;50.082;18.554;2022-12-07T01:20:35;17.2;;;12.5;;
23360;SDS011;11852;50.082;18.554;2022-12-07T01:21:42;20.1;;;14.8;;
23360;SDS011;11852;50.082;18.554;2022-12-07T01:22:49;20.0;;;14.7;;
23360;SDS011;11852;50.082;18.554;2022-12-07T01:23:57;18.8;;;13.6;;
23360;SDS011;11852;50.082;18.554;2022-12-07T01:25:04;19.2;;;13.6;;
23360;SDS011;11852;50.082;18.554;2022-12-07T01:26:14;18.6;;;13.2;;
23360;SDS011;11852;50.082;18.554;2022-12-07T01:27:18;18.2;;;14.1;;
23360;SDS011;11852;50.082;18.554;2022-12-07T01:28:26;19.9;;;15.2;;
23360;SDS011;11852;50.082;18.554;2022-12-07T01:29:33;18.4;;;13.6;;
23360;SDS011;11852;50.082;18.554;2022-12-07T01:30:40;18.8;;;13.7;;
23360;SDS011;11852;50.082;18.554;2022-12-07T01:31:48;20.4;;;15.2;;
23360;SDS011;11852;50.082;18.554;2022-12-07T01:32:54;20.3;;;15.0;;
23360;SDS011;11852;50.082;18.554;2022-12-07T01:34:01;19.3;;;13.6;;
23360;SDS011;11852;50.082;18.554;2022-12-07T01:35:08;19.2;;;14.2;;
23360;SDS011;11852;50.082;18.554;2022-12-07T01:37:23;19.5;;;14.0;;
23360;SDS011;11852;50.082;18.554;2022-12-07T01:38:30;20.4;;;15.1;;
23360;SDS011;11852;50.082;18.554;2022-12-07T01:39:37;19.6;;;13.6;;
23360;SDS011;11852;50.082;18.554;2022-12-07T01:40:44;23.0;;;15.3;;
23360;SDS011;11852;50.082;18.554;2022-12-07T01:41:52;21.6;;;15.1;;
23360;SDS011;11852;50.082;18.554;2022-12-07T01:43:00;20.8;;;14.9;;
23360;SDS011;11852;50.082;18.554;2022-12-07T01:46:34;20.4;;;14.3;;
23360;SDS011;11852;50.082;18.554;2022-12-07T01:47:41;21.4;;;15.2;;
23360;SDS011;11852;50.082;18.554;2022-12-07T01:48:48;21.8;;;14.8;;
23360;SDS011;11852;50.082;18.554;2022-12-07T01:49:56;20.8;;;15.0;;
23360;SDS011;11852;50.082;18.554;2022-12-07T01:51:05;20.5;;;14.6;;
23360;SDS011;11852;50.082;18.554;2022-12-07T01:53:24;23.2;;;15.7;;
23360;SDS011;11852;50.082;18.554;2022-12-07T01:54:31;25.8;;;17.2;;
23360;SDS011;11852;50.082;18.554;2022-12-07T01:55:38;24.9;;;16.1;;
23360;SDS011;11852;50.082;18.554;2022-12-07T01:56:47;22.9;;;15.2;;
23360;SDS011;11852;50.082;18.554;2022-12-07T01:57:52;24.8;;;15.9;;
23360;SDS011;11852;50.082;18.554;2022-12-07T01:59:02;21.7;;;14.3;;
23360;SDS011;11852;50.082;18.554;2022-12-07T02:00:09;20.0;;;13.8;;
23360;SDS011;11852;50.082;18.554;2022-12-07T02:01:16;18.5;;;13.1;;
23360;SDS011;11852;50.082;18.554;2022-12-07T02:03:07;18.1;;;12.5;;
23360;SDS011;11852;50.082;18.554;2022-12-07T02:03:41;20.3;;;13.7;;
23360;SDS011;11852;50.082;18.554;2022-12-07T02:04:47;21.6;;;13.2;;
23360;SDS011;11852;50.082;18.554;2022-12-07T02:05:55;21.4;;;13.5;;
23360;SDS011;11852;50.082;18.554;2022-12-07T02:07:02;22.2;;;15.0;;
23360;SDS011;11852;50.082;18.554;2022-12-07T02:08:10;20.9;;;13.8;;
23360;SDS011;11852;50.082;18.554;2022-12-07T02:09:17;21.1;;;13.3;;
23360;SDS011;11852;50.082;18.554;2022-12-07T02:10:26;21.4;;;13.4;;
23360;SDS011;11852;50.082;18.554;2022-12-07T02:11:32;20.9;;;13.1;;
23360;SDS011;11852;50.082;18.554;2022-12-07T02:12:40;21.1;;;13.4;;
23360;SDS011;11852;50.082;18.554;2022-12-07T02:13:48;19.8;;;12.9;;
23360;SDS011;11852;50.082;18.554;2022-12-07T02:14:55;21.8;;;14.2;;
23360;SDS011;11852;50.082;18.554;2022-12-07T02:19:42;20.4;;;14.2;;
23360;SDS011;11852;50.082;18.554;2022-12-07T02:22:01;18.9;;;13.6;;
23360;SDS011;11852;50.082;18.554;2022-12-07T02:24:25;19.0;;;13.1;;
23360;SDS011;11852;50.082;18.554;2022-12-07T02:29:26;17.5;;;13.2;;
23360;SDS011;11852;50.082;18.554;2022-12-07T02:30:33;18.9;;;13.7;;
23360;SDS011;11852;50.082;18.554;2022-12-07T02:31:42;18.4;;;13.2;;
23360;SDS011;11852;50.082;18.554;2022-12-07T02:35:15;17.8;;;13.3;;
23360;SDS011;11852;50.082;18.554;2022-12-07T02:37:37;19.3;;;13.9;;
23360;SDS011;11852;50.082;18.554;2022-12-07T02:38:51;20.3;;;13.6;;
23360;SDS011;11852;50.082;18.554;2022-12-07T02:40:04;20.0;;;14.6;;
23360;SDS011;11852;50.082;18.554;2022-12-07T02:41:18;20.2;;;14.0;;
23360;SDS011;11852;50.082;18.554;2022-12-07T02:42:25;20.0;;;13.7;;
23360;SDS011;11852;50.082;18.554;2022-12-07T02:43:33;20.4;;;14.4;;
23360;SDS011;11852;50.082;18.554;2022-12-07T02:44:41;19.8;;;14.5;;
23360;SDS011;11852;50.082;18.554;2022-12-07T02:45:48;20.0;;;14.2;;
23360;SDS011;11852;50.082;18.554;2022-12-07T02:46:59;19.1;;;13.8;;
23360;SDS011;11852;50.082;18.554;2022-12-07T02:48:05;18.9;;;14.0;;
23360;SDS011;11852;50.082;18.554;2022-12-07T02:49:13;20.2;;;14.4;;
23360;SDS011;11852;50.082;18.554;2022-12-07T02:50:20;19.5;;;14.8;;
23360;SDS011;11852;50.082;18.554;2022-12-07T02:51:31;19.1;;;14.5;;
23360;SDS011;11852;50.082;18.554;2022-12-07T02:52:38;18.8;;;14.1;;
23360;SDS011;11852;50.082;18.554;2022-12-07T02:53:45;19.5;;;14.5;;
23360;SDS011;11852;50.082;18.554;2022-12-07T02:54:53;20.7;;;14.8;;
23360;SDS011;11852;50.082;18.554;2022-12-07T03:03:30;22.4;;;14.4;;
23360;SDS011;11852;50.082;18.554;2022-12-07T03:12:09;21.2;;;13.6;;
23360;SDS011;11852;50.082;18.554;2022-12-07T03:14:38;23.7;;;15.6;;
23360;SDS011;11852;50.082;18.554;2022-12-07T03:15:46;21.8;;;14.3;;
23360;SDS011;11852;50.082;18.554;2022-12-07T03:18:03;24.0;;;14.5;;
23360;SDS011;11852;50.082;18.554;2022-12-07T03:19:11;22.3;;;14.6;;
23360;SDS011;11852;50.082;18.554;2022-12-07T03:20:21;21.0;;;12.9;;
23360;SDS011;11852;50.082;18.554;2022-12-07T03:21:31;19.4;;;13.0;;
23360;SDS011;11852;50.082;18.554;2022-12-07T03:22:37;21.8;;;13.3;;
23360;SDS011;11852;50.082;18.554;2022-12-07T03:23:44;19.4;;;12.4;;
23360;SDS011;11852;50.082;18.554;2022-12-07T03:24:52;17.3;;;11.9;;
23360;SDS011;11852;50.082;18.554;2022-12-07T03:25:59;15.9;;;10.3;;
23360;SDS011;11852;50.082;18.554;2022-12-07T03:27:06;15.9;;;10.6;;
23360;SDS011;11852;50.082;18.554;2022-12-07T03:28:19;17.4;;;11.4;;
23360;SDS011;11852;50.082;18.554;2022-12-07T03:29:30;17.5;;;11.6;;
23360;SDS011;11852;50.082;18.554;2022-12-07T03:31:53;16.5;;;10.6;;
23360;SDS011;11852;50.082;18.554;2022-12-07T03:33:02;16.9;;;10.4;;
23360;SDS011;11852;50.082;18.554;2022-12-07T03:35:22;15.8;;;9.9;;
23360;SDS011;11852;50.082;18.554;2022-12-07T03:37:10;15.7;;;10.3;;
23360;SDS011;11852;50.082;18.554;2022-12-07T03:37:47;15.8;;;10.5;;
23360;SDS011;11852;50.082;18.554;2022-12-07T03:41:30;18.7;;;11.6;;
23360;SDS011;11852;50.082;18.554;2022-12-07T03:42:38;18.4;;;11.1;;
23360;SDS011;11852;50.082;18.554;2022-12-07T03:43:46;18.7;;;10.7;;
23360;SDS011;11852;50.082;18.554;2022-12-07T03:44:53;19.3;;;11.8;;
23360;SDS011;11852;50.082;18.554;2022-12-07T03:47:16;18.0;;;12.0;;
23360;SDS011;11852;50.082;18.554;2022-12-07T03:48:52;17.2;;;11.5;;
23360;SDS011;11852;50.082;18.554;2022-12-07T03:53:20;15.5;;;10.2;;
23360;SDS011;11852;50.082;18.554;2022-12-07T03:55:36;16.1;;;10.8;;
23360;SDS011;11852;50.082;18.554;2022-12-07T03:56:43;16.3;;;9.9;;
23360;SDS011;11852;50.082;18.554;2022-12-07T03:57:51;16.5;;;10.9;;
23360;SDS011;11852;50.082;18.554;2022-12-07T03:58:57;17.7;;;10.8;;
23360;SDS011;11852;50.082;18.554;2022-12-07T04:00:05;16.4;;;11.1;;
23360;SDS011;11852;50.082;18.554;2022-12-07T04:01:12;15.9;;;11.0;;
23360;SDS011;11852;50.082;18.554;2022-12-07T04:02:19;15.8;;;10.7;;
23360;SDS011;11852;50.082;18.554;2022-12-07T04:03:27;16.3;;;10.2;;
23360;SDS011;11852;50.082;18.554;2022-12-07T04:04:34;16.5;;;10.1;;
23360;SDS011;11852;50.082;18.554;2022-12-07T04:05:41;15.9;;;10.5;;
23360;SDS011;11852;50.082;18.554;2022-12-07T04:06:48;17.4;;;11.3;;
23360;SDS011;11852;50.082;18.554;2022-12-07T04:07:56;16.7;;;11.0;;
23360;SDS011;11852;50.082;18.554;2022-12-07T04:09:04;15.3;;;10.1;;
23360;SDS011;11852;50.082;18.554;2022-12-07T04:10:11;15.0;;;10.3;;
23360;SDS011;11852;50.082;18.554;2022-12-07T04:11:18;16.2;;;10.6;;
23360;SDS011;11852;50.082;18.554;2022-12-07T04:12:26;16.6;;;11.2;;
23360;SDS011;11852;50.082;18.554;2022-12-07T04:13:33;16.9;;;11.1;;
23360;SDS011;11852;50.082;18.554;2022-12-07T04:14:40;15.9;;;10.8;;
23360;SDS011;11852;50.082;18.554;2022-12-07T04:15:47;15.5;;;10.0;;
23360;SDS011;11852;50.082;18.554;2022-12-07T04:16:55;15.2;;;9.4;;
23360;SDS011;11852;50.082;18.554;2022-12-07T04:18:02;20.0;;;13.3;;
23360;SDS011;11852;50.082;18.554;2022-12-07T04:19:09;17.7;;;11.5;;
23360;SDS011;11852;50.082;18.554;2022-12-07T04:20:16;31.3;;;19.9;;
23360;SDS011;11852;50.082;18.554;2022-12-07T04:21:24;36.5;;;21.9;;
23360;SDS011;11852;50.082;18.554;2022-12-07T04:22:31;44.7;;;27.7;;
23360;SDS011;11852;50.082;18.554;2022-12-07T04:23:38;33.9;;;21.1;;
23360;SDS011;11852;50.082;18.554;2022-12-07T04:24:46;24.4;;;14.7;;
23360;SDS011;11852;50.082;18.554;2022-12-07T04:25:54;23.9;;;15.7;;
23360;SDS011;11852;50.082;18.554;2022-12-07T04:27:01;17.3;;;10.6;;
23360;SDS011;11852;50.082;18.554;2022-12-07T04:28:08;16.1;;;10.3;;
23360;SDS011;11852;50.082;18.554;2022-12-07T04:29:17;28.4;;;18.5;;
23360;SDS011;11852;50.082;18.554;2022-12-07T04:30:24;35.3;;;22.9;;
23360;SDS011;11852;50.082;18.554;2022-12-07T04:31:31;20.8;;;11.0;;
23360;SDS011;11852;50.082;18.554;2022-12-07T04:32:38;30.5;;;18.1;;
23360;SDS011;11852;50.082;18.554;2022-12-07T04:33:46;17.7;;;10.6;;
23360;SDS011;11852;50.082;18.554;2022-12-07T04:34:53;19.8;;;12.1;;
23360;SDS011;11852;50.082;18.554;2022-12-07T04:36:00;18.0;;;10.2;;
23360;SDS011;11852;50.082;18.554;2022-12-07T04:37:08;18.8;;;11.2;;
23360;SDS011;11852;50.082;18.554;2022-12-07T04:38:15;19.1;;;11.5;;
23360;SDS011;11852;50.082;18.554;2022-12-07T04:39:23;18.6;;;11.8;;
23360;SDS011;11852;50.082;18.554;2022-12-07T04:40:29;20.6;;;14.1;;
23360;SDS011;11852;50.082;18.554;2022-12-07T04:41:36;17.9;;;11.1;;
23360;SDS011;11852;50.082;18.554;2022-12-07T04:42:45;20.1;;;12.6;;
23360;SDS011;11852;50.082;18.554;2022-12-07T04:43:54;23.0;;;13.6;;
23360;SDS011;11852;50.082;18.554;2022-12-07T04:45:00;25.4;;;15.5;;
23360;SDS011;11852;50.082;18.554;2022-12-07T04:46:07;26.7;;;16.1;;
23360;SDS011;11852;50.082;18.554;2022-12-07T04:47:14;22.9;;;13.5;;
23360;SDS011;11852;50.082;18.554;2022-12-07T04:48:22;25.5;;;15.4;;
23360;SDS011;11852;50.082;18.554;2022-12-07T04:49:29;26.7;;;16.1;;
23360;SDS011;11852;50.082;18.554;2022-12-07T04:50:36;25.8;;;16.1;;
23360;SDS011;11852;50.082;18.554;2022-12-07T04:51:44;26.6;;;16.5;;
23360;SDS011;11852;50.082;18.554;2022-12-07T04:52:51;24.4;;;15.6;;
23360;SDS011;11852;50.082;18.554;2022-12-07T04:53:58;25.6;;;15.7;;
23360;SDS011;11852;50.082;18.554;2022-12-07T04:55:06;26.6;;;15.2;;
23360;SDS011;11852;50.082;18.554;2022-12-07T04:56:14;25.7;;;16.1;;
23360;SDS011;11852;50.082;18.554;2022-12-07T04:57:21;24.5;;;14.5;;
23360;SDS011;11852;50.082;18.554;2022-12-07T04:58:28;24.3;;;15.1;;
23360;SDS011;11852;50.082;18.554;2022-12-07T04:59:36;22.3;;;13.9;;
23360;SDS011;11852;50.082;18.554;2022-12-07T05:00:45;19.8;;;12.3;;
23360;SDS011;11852;50.082;18.554;2022-12-07T05:01:52;20.5;;;11.8;;
23360;SDS011;11852;50.082;18.554;2022-12-07T05:03:00;19.6;;;11.1;;
23360;SDS011;11852;50.082;18.554;2022-12-07T05:04:08;20.3;;;11.4;;
23360;SDS011;11852;50.082;18.554;2022-12-07T05:05:16;20.4;;;12.2;;
23360;SDS011;11852;50.082;18.554;2022-12-07T05:06:24;21.7;;;12.0;;
23360;SDS011;11852;50.082;18.554;2022-12-07T05:07:35;21.4;;;12.6;;
23360;SDS011;11852;50.082;18.554;2022-12-07T05:08:43;23.2;;;13.0;;
23360;SDS011;11852;50.082;18.554;2022-12-07T05:09:56;20.2;;;11.9;;
23360;SDS011;11852;50.082;18.554;2022-12-07T05:11:04;18.7;;;10.6;;
23360;SDS011;11852;50.082;18.554;2022-12-07T05:12:11;20.0;;;11.8;;
23360;SDS011;11852;50.082;18.554;2022-12-07T05:13:18;18.8;;;11.2;;
23360;SDS011;11852;50.082;18.554;2022-12-07T05:14:25;21.0;;;12.5;;
23360;SDS011;11852;50.082;18.554;2022-12-07T05:15:33;21.2;;;12.6;;
23360;SDS011;11852;50.082;18.554;2022-12-07T05:16:40;21.1;;;12.2;;
23360;SDS011;11852;50.082;18.554;2022-12-07T05:17:48;20.7;;;12.7;;
23360;SDS011;11852;50.082;18.554;2022-12-07T05:18:56;20.1;;;12.3;;
23360;SDS011;11852;50.082;18.554;2022-12-07T05:20:03;21.2;;;12.5;;
23360;SDS011;11852;50.082;18.554;2022-12-07T05:21:10;22.4;;;12.7;;
23360;SDS011;11852;50.082;18.554;2022-12-07T05:22:18;19.3;;;11.3;;
23360;SDS011;11852;50.082;18.554;2022-12-07T05:23:25;18.7;;;11.7;;
23360;SDS011;11852;50.082;18.554;2022-12-07T05:24:35;24.8;;;14.6;;
23360;SDS011;11852;50.082;18.554;2022-12-07T05:25:42;22.9;;;13.9;;
23360;SDS011;11852;50.082;18.554;2022-12-07T05:26:49;22.3;;;13.7;;
23360;SDS011;11852;50.082;18.554;2022-12-07T05:27:57;21.5;;;13.4;;
23360;SDS011;11852;50.082;18.554;2022-12-07T05:29:04;24.2;;;14.6;;
23360;SDS011;11852;50.082;18.554;2022-12-07T05:30:11;23.7;;;14.2;;
23360;SDS011;11852;50.082;18.554;2022-12-07T05:31:19;22.9;;;13.7;;
23360;SDS011;11852;50.082;18.554;2022-12-07T05:32:26;27.1;;;15.7;;
23360;SDS011;11852;50.082;18.554;2022-12-07T05:33:35;27.2;;;16.0;;
23360;SDS011;11852;50.082;18.554;2022-12-07T05:34:42;29.4;;;16.7;;
23360;SDS011;11852;50.082;18.554;2022-12-07T05:35:49;30.2;;;18.1;;
23360;SDS011;11852;50.082;18.554;2022-12-07T05:36:57;30.8;;;19.4;;
23360;SDS011;11852;50.082;18.554;2022-12-07T05:38:04;34.1;;;21.9;;
23360;SDS011;11852;50.082;18.554;2022-12-07T05:39:12;33.6;;;20.2;;
23360;SDS011;11852;50.082;18.554;2022-12-07T05:40:21;37.0;;;22.3;;
23360;SDS011;11852;50.082;18.554;2022-12-07T05:41:35;35.3;;;21.6;;
23360;SDS011;11852;50.082;18.554;2022-12-07T05:42:42;36.1;;;22.0;;
23360;SDS011;11852;50.082;18.554;2022-12-07T05:43:49;39.1;;;23.7;;
23360;SDS011;11852;50.082;18.554;2022-12-07T05:44:57;38.5;;;23.7;;
23360;SDS011;11852;50.082;18.554;2022-12-07T05:46:04;41.1;;;24.8;;
23360;SDS011;11852;50.082;18.554;2022-12-07T05:47:12;36.3;;;21.2;;
23360;SDS011;11852;50.082;18.554;2022-12-07T05:48:19;34.6;;;20.5;;
23360;SDS011;11852;50.082;18.554;2022-12-07T05:49:27;35.2;;;21.1;;
23360;SDS011;11852;50.082;18.554;2022-12-07T05:50:35;36.9;;;21.3;;
23360;SDS011;11852;50.082;18.554;2022-12-07T05:51:42;35.1;;;20.4;;
23360;SDS011;11852;50.082;18.554;2022-12-07T05:52:50;37.1;;;20.8;;
23360;SDS011;11852;50.082;18.554;2022-12-07T05:53:57;32.8;;;20.0;;
23360;SDS011;11852;50.082;18.554;2022-12-07T05:55:05;36.1;;;21.4;;
23360;SDS011;11852;50.082;18.554;2022-12-07T05:56:14;36.9;;;22.3;;
23360;SDS011;11852;50.082;18.554;2022-12-07T05:57:21;38.8;;;23.5;;
23360;SDS011;11852;50.082;18.554;2022-12-07T05:58:33;47.2;;;27.7;;
23360;SDS011;11852;50.082;18.554;2022-12-07T05:59:40;49.3;;;27.5;;
23360;SDS011;11852;50.082;18.554;2022-12-07T06:00:47;86.7;;;37.7;;
23360;SDS011;11852;50.082;18.554;2022-12-07T06:01:55;67.8;;;31.8;;
23360;SDS011;11852;50.082;18.554;2022-12-07T06:03:06;122.6;;;48.7;;
23360;SDS011;11852;50.082;18.554;2022-12-07T06:04:14;126.0;;;52.5;;
23360;SDS011;11852;50.082;18.554;2022-12-07T06:05:21;139.6;;;58.8;;
23360;SDS011;11852;50.082;18.554;2022-12-07T06:06:28;85.4;;;41.1;;
23360;SDS011;11852;50.082;18.554;2022-12-07T06:07:35;124.3;;;54.0;;
23360;SDS011;11852;50.082;18.554;2022-12-07T06:08:45;118.6;;;52.9;;
23360;SDS011;11852;50.082;18.554;2022-12-07T06:09:53;71.3;;;41.5;;
23360;SDS011;11852;50.082;18.554;2022-12-07T06:11:06;72.6;;;41.9;;
23360;SDS011;11852;50.082;18.554;2022-12-07T06:12:19;67.7;;;39.3;;
23360;SDS011;11852;50.082;18.554;2022-12-07T06:13:26;67.2;;;38.1;;
23360;SDS011;11852;50.082;18.554;2022-12-07T06:14:34;58.6;;;35.8;;
23360;SDS011;11852;50.082;18.554;2022-12-07T06:15:41;53.7;;;30.0;;
23360;SDS011;11852;50.082;18.554;2022-12-07T06:16:48;56.2;;;32.3;;
23360;SDS011;11852;50.082;18.554;2022-12-07T06:17:56;50.3;;;28.7;;
23360;SDS011;11852;50.082;18.554;2022-12-07T06:19:02;46.4;;;26.9;;
23360;SDS011;11852;50.082;18.554;2022-12-07T06:20:10;54.7;;;31.7;;
23360;SDS011;11852;50.082;18.554;2022-12-07T06:21:17;50.7;;;28.6;;
23360;SDS011;11852;50.082;18.554;2022-12-07T06:22:24;46.3;;;27.6;;
23360;SDS011;11852;50.082;18.554;2022-12-07T06:23:31;49.7;;;28.4;;
23360;SDS011;11852;50.082;18.554;2022-12-07T06:24:38;43.1;;;25.9;;
23360;SDS011;11852;50.082;18.554;2022-12-07T06:25:45;46.1;;;25.2;;
23360;SDS011;11852;50.082;18.554;2022-12-07T06:26:52;41.0;;;21.8;;
23360;SDS011;11852;50.082;18.554;2022-12-07T06:28:00;41.0;;;21.5;;
23360;SDS011;11852;50.082;18.554;2022-12-07T06:29:07;42.1;;;21.8;;
23360;SDS011;11852;50.082;18.554;2022-12-07T06:30:14;35.8;;;19.1;;
23360;SDS011;11852;50.082;18.554;2022-12-07T06:31:21;34.2;;;17.7;;
23360;SDS011;11852;50.082;18.554;2022-12-07T06:32:28;33.3;;;18.3;;
23360;SDS011;11852;50.082;18.554;2022-12-07T06:33:35;34.5;;;19.3;;
23360;SDS011;11852;50.082;18.554;2022-12-07T06:34:43;33.6;;;17.9;;
23360;SDS011;11852;50.082;18.554;2022-12-07T06:35:50;31.7;;;17.8;;
23360;SDS011;11852;50.082;18.554;2022-12-07T06:36:57;27.9;;;15.9;;
23360;SDS011;11852;50.082;18.554;2022-12-07T06:38:04;29.5;;;16.4;;
23360;SDS011;11852;50.082;18.554;2022-12-07T06:39:11;26.6;;;14.7;;
23360;SDS011;11852;50.082;18.554;2022-12-07T06:40:18;27.2;;;15.7;;
23360;SDS011;11852;50.082;18.554;2022-12-07T06:41:25;22.7;;;13.1;;
23360;SDS011;11852;50.082;18.554;2022-12-07T06:42:33;21.0;;;12.4;;
23360;SDS011;11852;50.082;18.554;2022-12-07T06:43:40;22.6;;;12.4;;
23360;SDS011;11852;50.082;18.554;2022-12-07T06:44:47;22.1;;;12.0;;
23360;SDS011;11852;50.082;18.554;2022-12-07T06:45:54;20.3;;;12.4;;
23360;SDS011;11852;50.082;18.554;2022-12-07T06:47:01;23.0;;;13.1;;
23360;SDS011;11852;50.082;18.554;2022-12-07T06:48:08;25.8;;;15.1;;
23360;SDS011;11852;50.082;18.554;2022-12-07T06:49:15;26.1;;;14.6;;
23360;SDS011;11852;50.082;18.554;2022-12-07T06:50:22;24.9;;;14.7;;
23360;SDS011;11852;50.082;18.554;2022-12-07T06:51:31;22.7;;;13.9;;
23360;SDS011;11852;50.082;18.554;2022-12-07T06:52:37;21.5;;;12.9;;
23360;SDS011;11852;50.082;18.554;2022-12-07T06:53:44;25.5;;;14.6;;
23360;SDS011;11852;50.082;18.554;2022-12-07T06:54:52;24.5;;;13.6;;
23360;SDS011;11852;50.082;18.554;2022-12-07T06:55:59;23.1;;;13.6;;
23360;SDS011;11852;50.082;18.554;2022-12-07T06:57:06;24.9;;;13.9;;
23360;SDS011;11852;50.082;18.554;2022-12-07T06:58:13;20.6;;;11.8;;
23360;SDS011;11852;50.082;18.554;2022-12-07T06:59:20;22.7;;;12.6;;
23360;SDS011;11852;50.082;18.554;2022-12-07T07:00:27;23.2;;;13.0;;
23360;SDS011;11852;50.082;18.554;2022-12-07T07:01:34;27.4;;;15.3;;
23360;SDS011;11852;50.082;18.554;2022-12-07T07:02:42;29.7;;;16.6;;
23360;SDS011;11852;50.082;18.554;2022-12-07T07:03:49;23.8;;;14.4;;
23360;SDS011;11852;50.082;18.554;2022-12-07T07:04:56;25.9;;;14.5;;
23360;SDS011;11852;50.082;18.554;2022-12-07T07:06:03;28.1;;;15.6;;
23360;SDS011;11852;50.082;18.554;2022-12-07T07:07:11;28.0;;;15.5;;
23360;SDS011;11852;50.082;18.554;2022-12-07T07:08:18;29.3;;;17.9;;
23360;SDS011;11852;50.082;18.554;2022-12-07T07:09:25;30.2;;;16.9;;
23360;SDS011;11852;50.082;18.554;2022-12-07T07:10:32;25.7;;;15.1;;
23360;SDS011;11852;50.082;18.554;2022-12-07T07:11:39;25.5;;;15.2;;
23360;SDS011;11852;50.082;18.554;2022-12-07T07:12:46;25.7;;;14.3;;
23360;SDS011;11852;50.082;18.554;2022-12-07T07:13:54;24.3;;;14.7;;
23360;SDS011;11852;50.082;18.554;2022-12-07T07:15:01;26.4;;;15.3;;
23360;SDS011;11852;50.082;18.554;2022-12-07T07:16:08;27.1;;;15.3;;
23360;SDS011;11852;50.082;18.554;2022-12-07T07:17:15;25.1;;;13.3;;
23360;SDS011;11852;50.082;18.554;2022-12-07T07:18:22;28.1;;;15.4;;
23360;SDS011;11852;50.082;18.554;2022-12-07T07:19:30;27.6;;;16.3;;
23360;SDS011;11852;50.082;18.554;2022-12-07T07:20:37;28.9;;;15.9;;
23360;SDS011;11852;50.082;18.554;2022-12-07T07:21:44;25.3;;;13.7;;
23360;SDS011;11852;50.082;18.554;2022-12-07T07:22:53;28.8;;;15.6;;
23360;SDS011;11852;50.082;18.554;2022-12-07T07:23:58;23.0;;;12.3;;
23360;SDS011;11852;50.082;18.554;2022-12-07T07:25:05;22.8;;;11.3;;
23360;SDS011;11852;50.082;18.554;2022-12-07T07:26:12;20.2;;;10.3;;
23360;SDS011;11852;50.082;18.554;2022-12-07T07:27:20;18.9;;;10.4;;
23360;SDS011;11852;50.082;18.554;2022-12-07T07:28:27;19.3;;;10.4;;
23360;SDS011;11852;50.082;18.554;2022-12-07T07:29:34;18.8;;;10.2;;